createdAt,value
2018-01-07T00:00:54.616Z,89.7
2018-01-07T00:01:57.401Z,89.6
2018-01-07T00:02:59.892Z,89.6
2018-01-07T00:04:02.388Z,89.5
2018-01-07T00:05:04.872Z,89.6
2018-01-07T00:06:07.661Z,89.9
2018-01-07T00:07:10.448Z,90
2018-01-07T00:08:12.946Z,90
2018-01-07T00:09:15.429Z,90
2018-01-07T00:10:17.924Z,90
2018-01-07T00:11:20.415Z,90
2018-01-07T00:12:22.908Z,90
2018-01-07T00:13:25.396Z,90
2018-01-07T00:14:28.178Z,90
2018-01-07T00:15:30.656Z,89.6
2018-01-07T00:16:33.159Z,89.6
2018-01-07T00:17:35.645Z,89.4
2018-01-07T00:18:38.134Z,89.4
2018-01-07T00:19:40.626Z,89.4
2018-01-07T00:20:43.128Z,89.5
2018-01-07T00:21:45.615Z,89.4
2018-01-07T00:22:48.113Z,89.6
2018-01-07T00:23:50.600Z,89.8
2018-01-07T00:24:53.380Z,89.8
2018-01-07T00:25:55.873Z,89.7
2018-01-07T00:26:58.361Z,89.8
2018-01-07T00:28:00.895Z,89.8
2018-01-07T00:29:03.384Z,89.7
2018-01-07T00:30:05.866Z,89.7
2018-01-07T00:31:08.663Z,89.6
2018-01-07T00:32:11.149Z,89.6
2018-01-07T00:33:13.644Z,89.7
2018-01-07T00:34:16.129Z,89.9
2018-01-07T00:35:18.615Z,89.8
2018-01-07T00:36:21.103Z,89.8
2018-01-07T00:37:23.588Z,89.8
2018-01-07T00:38:26.088Z,89.7
2018-01-07T00:39:28.582Z,89.8
2018-01-07T00:40:31.052Z,89.7
2018-01-07T00:41:33.555Z,89.8
2018-01-07T00:42:36.045Z,89.6
2018-01-07T00:43:38.548Z,89.7
2018-01-07T00:44:41.324Z,89.7
2018-01-07T00:45:43.808Z,89.7
2018-01-07T00:46:46.293Z,89.6
2018-01-07T00:47:48.790Z,89.7
2018-01-07T00:48:51.275Z,89.8
2018-01-07T00:49:53.765Z,89.7
2018-01-07T00:50:56.254Z,89.7
2018-01-07T00:51:58.739Z,89.7
2018-01-07T00:53:01.239Z,89.7
2018-01-07T00:54:03.730Z,89.8
2018-01-07T00:55:06.207Z,89.9
2018-01-07T00:56:08.999Z,89.8
2018-01-07T00:57:11.792Z,89.6
2018-01-07T00:58:14.291Z,89.7
2018-01-07T00:59:17.349Z,89.6
2018-01-07T01:00:19.832Z,89.7
2018-01-07T01:01:22.321Z,89.7
2018-01-07T01:02:24.824Z,89.6
2018-01-07T01:03:27.308Z,89.8
2018-01-07T01:04:29.784Z,89.8
2018-01-07T01:05:32.857Z,89.9
2018-01-07T01:06:35.359Z,90
2018-01-07T01:07:37.842Z,90
2018-01-07T01:08:40.332Z,90
2018-01-07T01:09:43.109Z,90
2018-01-07T01:10:45.887Z,90
2018-01-07T01:11:48.683Z,90
2018-01-07T01:12:51.171Z,90
2018-01-07T01:13:53.646Z,90
2018-01-07T01:14:56.135Z,89.9
2018-01-07T01:15:58.917Z,89.9
2018-01-07T01:17:01.402Z,89.9
2018-01-07T01:18:03.904Z,90
2018-01-07T01:19:06.382Z,90
2018-01-07T01:20:09.157Z,90
2018-01-07T01:21:11.660Z,90
2018-01-07T01:22:14.433Z,90
2018-01-07T01:23:16.931Z,90
2018-01-07T01:24:19.425Z,90
2018-01-07T01:25:21.917Z,90
2018-01-07T01:26:24.418Z,89.8
2018-01-07T01:27:27.209Z,89.8
2018-01-07T01:28:29.675Z,89.8
2018-01-07T01:29:32.167Z,89.8
2018-01-07T01:30:34.656Z,89.7
2018-01-07T01:31:37.140Z,89.8
2018-01-07T01:32:39.634Z,89.7
2018-01-07T01:33:42.120Z,89.8
2018-01-07T01:34:44.608Z,89.8
2018-01-07T01:35:47.094Z,89.8
2018-01-07T01:36:49.877Z,89.8
2018-01-07T01:37:52.371Z,89.9
2018-01-07T01:38:54.867Z,89.8
2018-01-07T01:39:57.343Z,89.8
2018-01-07T01:40:59.827Z,89.7
2018-01-07T01:42:02.601Z,89.9
2018-01-07T01:43:05.412Z,90
2018-01-07T01:44:07.868Z,90
2018-01-07T01:45:10.668Z,89.9
2018-01-07T01:46:13.153Z,89.9
2018-01-07T01:47:15.946Z,89.9
2018-01-07T01:48:18.434Z,90
2018-01-07T01:49:20.929Z,90
2018-01-07T01:50:23.414Z,90.1
2018-01-07T01:51:25.905Z,90.2
2018-01-07T01:52:28.690Z,90.1
2018-01-07T01:53:31.190Z,90.1
2018-01-07T01:54:33.664Z,90.1
2018-01-07T01:55:36.161Z,90.1
2018-01-07T01:56:38.652Z,90
2018-01-07T01:57:41.141Z,90
2018-01-07T01:58:43.628Z,90
2018-01-07T01:59:46.413Z,90
2018-01-07T02:00:48.893Z,90
2018-01-07T02:01:51.400Z,90
2018-01-07T02:02:54.192Z,90
2018-01-07T02:03:56.663Z,90
2018-01-07T02:04:59.158Z,90
2018-01-07T02:06:01.936Z,90
2018-01-07T02:07:04.418Z,90
2018-01-07T02:08:07.224Z,89.9
2018-01-07T02:09:09.712Z,90
2018-01-07T02:10:12.482Z,89.8
2018-01-07T02:11:15.275Z,89.7
2018-01-07T02:12:17.756Z,89.7
2018-01-07T02:13:20.526Z,89.8
2018-01-07T02:14:23.022Z,89.9
2018-01-07T02:15:25.513Z,89.9
2018-01-07T02:16:28.003Z,89.8
2018-01-07T02:17:30.495Z,89.8
2018-01-07T02:18:32.972Z,89.9
2018-01-07T02:19:35.466Z,90
2018-01-07T02:20:37.969Z,90
2018-01-07T02:21:40.460Z,89.9
2018-01-07T02:22:42.936Z,89.9
2018-01-07T02:23:45.738Z,89.8
2018-01-07T02:24:48.523Z,89.7
2018-01-07T02:25:51.306Z,89.6
2018-01-07T02:26:54.089Z,89.4
2018-01-07T02:27:56.559Z,89.4
2018-01-07T02:28:59.338Z,89.4
2018-01-07T02:30:01.844Z,89.6
2018-01-07T02:31:04.337Z,89.4
2018-01-07T02:32:06.827Z,89.7
2018-01-07T02:33:09.330Z,89.8
2018-01-07T02:34:11.825Z,89.8
2018-01-07T02:35:14.293Z,89.9
2018-01-07T02:36:16.789Z,89.9
2018-01-07T02:37:19.288Z,89.9
2018-01-07T02:38:21.773Z,89.9
2018-01-07T02:39:24.276Z,89.8
2018-01-07T02:40:26.763Z,89.6
2018-01-07T02:41:29.848Z,89.6
2018-01-07T02:42:32.352Z,89.7
2018-01-07T02:43:34.836Z,89.8
2018-01-07T02:44:37.332Z,89.8
2018-01-07T02:45:39.818Z,90
2018-01-07T02:46:42.307Z,89.6
2018-01-07T02:47:44.793Z,89.7
2018-01-07T02:48:47.581Z,89.7
2018-01-07T02:49:50.069Z,89.7
2018-01-07T02:50:52.563Z,89.8
2018-01-07T02:51:55.049Z,89.7
2018-01-07T02:52:57.544Z,89.7
2018-01-07T02:54:00.027Z,89.6
2018-01-07T02:55:02.823Z,89.7
2018-01-07T02:56:05.299Z,89.7
2018-01-07T02:57:07.785Z,89.8
2018-01-07T02:58:10.277Z,89.8
2018-01-07T02:59:13.084Z,89.8
2018-01-07T03:00:15.846Z,89.8
2018-01-07T03:01:18.359Z,90
2018-01-07T03:02:21.417Z,89.8
2018-01-07T03:03:23.910Z,89.6
2018-01-07T03:04:26.398Z,89.5
2018-01-07T03:05:28.889Z,89.5
2018-01-07T03:06:31.369Z,89.4
2018-01-07T03:07:33.854Z,89.4
2018-01-07T03:08:36.358Z,89.4
2018-01-07T03:09:38.834Z,89.6
2018-01-07T03:10:41.325Z,89.6
2018-01-07T03:11:43.815Z,89.6
2018-01-07T03:12:46.303Z,89.4
2018-01-07T03:13:49.090Z,89.4
2018-01-07T03:14:51.589Z,89.4
2018-01-07T03:15:54.065Z,89.4
2018-01-07T03:16:56.561Z,89.5
2018-01-07T03:17:59.710Z,89.6
2018-01-07T03:19:02.226Z,89.6
2018-01-07T03:20:04.720Z,89.6
2018-01-07T03:21:07.508Z,89.5
2018-01-07T03:22:10.285Z,89.7
2018-01-07T03:23:12.780Z,89.8
2018-01-07T03:24:15.263Z,89.7
2018-01-07T03:25:18.058Z,89.6
2018-01-07T03:26:20.547Z,89.6
2018-01-07T03:27:23.033Z,89.7
2018-01-07T03:28:25.516Z,89.4
2018-01-07T03:29:28.016Z,89.4
2018-01-07T03:30:30.800Z,89.6
2018-01-07T03:31:33.875Z,89.5
2018-01-07T03:32:36.775Z,89.5
2018-01-07T03:33:39.302Z,89.6
2018-01-07T03:34:41.787Z,89.6
2018-01-07T03:35:44.285Z,89.4
2018-01-07T03:36:46.824Z,89.3
2018-01-07T03:37:49.401Z,89.6
2018-01-07T03:38:51.960Z,89.8
2018-01-07T03:39:54.479Z,89.9
2018-01-07T03:40:57.290Z,89.9
2018-01-07T03:41:59.819Z,90
2018-01-07T03:43:02.601Z,90
2018-01-07T03:44:05.671Z,89.9
2018-01-07T03:45:08.444Z,90
2018-01-07T03:46:10.933Z,90
2018-01-07T03:47:13.419Z,90
2018-01-07T03:48:15.904Z,90
2018-01-07T03:49:18.422Z,90
2018-01-07T03:50:20.915Z,90
2018-01-07T03:51:23.432Z,89.9
2018-01-07T03:52:25.970Z,89.8
2018-01-07T03:53:28.507Z,89.8
2018-01-07T03:54:31.064Z,89.8
2018-01-07T03:55:33.585Z,89.9
2018-01-07T03:56:36.430Z,89.9
2018-01-07T03:57:39.553Z,89.9
2018-01-07T03:58:42.408Z,89.9
2018-01-07T03:59:44.966Z,90
2018-01-07T04:00:47.639Z,90
2018-01-07T04:01:50.150Z,90
2018-01-07T04:02:52.956Z,90
2018-01-07T04:03:56.148Z,90
2018-01-07T04:04:59.019Z,89.9
2018-01-07T04:06:01.786Z,89.8
2018-01-07T04:07:04.422Z,89.8
2018-01-07T04:08:07.321Z,89.8
2018-01-07T04:09:10.133Z,89.6
2018-01-07T04:10:12.870Z,89.5
2018-01-07T04:11:15.536Z,89.6
2018-01-07T04:12:18.834Z,89.6
2018-01-07T04:13:21.516Z,89.6
2018-01-07T04:14:24.354Z,89.5
2018-01-07T04:15:27.325Z,89.5
2018-01-07T04:16:30.033Z,89.4
2018-01-07T04:17:33.464Z,89.4
2018-01-07T04:18:36.075Z,89.4
2018-01-07T04:19:39.244Z,89.4
2018-01-07T04:20:42.526Z,89.3
2018-01-07T04:21:45.125Z,89.1
2018-01-07T04:22:48.051Z,89.1
2018-01-07T04:23:51.541Z,89.2
2018-01-07T04:24:54.221Z,89.2
2018-01-07T04:25:56.806Z,89.2
2018-01-07T04:26:59.682Z,89.3
2018-01-07T04:28:02.200Z,89.2
2018-01-07T04:29:05.510Z,89.2
2018-01-07T04:30:08.335Z,89.2
2018-01-07T04:31:10.882Z,89.2
2018-01-07T04:32:14.257Z,89.2
2018-01-07T04:33:16.841Z,89.2
2018-01-07T04:34:19.655Z,89.3
2018-01-07T04:35:22.149Z,89.2
2018-01-07T04:36:24.662Z,89.2
2018-01-07T04:37:27.214Z,89.2
2018-01-07T04:38:29.766Z,89.1
2018-01-07T04:39:32.583Z,89
2018-01-07T04:40:35.065Z,89
2018-01-07T04:41:37.624Z,88.9
2018-01-07T04:42:40.170Z,88.9
2018-01-07T04:43:42.951Z,88.8
2018-01-07T04:44:45.471Z,88.8
2018-01-07T04:45:48.028Z,88.7
2018-01-07T04:46:50.586Z,88.7
2018-01-07T04:47:53.104Z,88.8
2018-01-07T04:48:55.937Z,88.8
2018-01-07T04:49:58.427Z,88.8
2018-01-07T04:51:01.222Z,88.7
2018-01-07T04:52:03.708Z,88.8
2018-01-07T04:53:06.195Z,88.7
2018-01-07T04:54:08.686Z,88.8
2018-01-07T04:55:11.178Z,88.8
2018-01-07T04:56:13.969Z,88.8
2018-01-07T04:57:16.458Z,88.8
2018-01-07T04:58:18.928Z,88.8
2018-01-07T04:59:21.415Z,88.7
2018-01-07T05:00:23.920Z,88.8
2018-01-07T05:01:26.397Z,88.8
2018-01-07T05:02:29.181Z,88.8
2018-01-07T05:03:31.675Z,88.7
2018-01-07T05:04:34.479Z,88.5
2018-01-07T05:05:36.958Z,88.5
2018-01-07T05:06:39.456Z,88.5
2018-01-07T05:07:42.240Z,88.5
2018-01-07T05:08:44.724Z,88.4
2018-01-07T05:09:47.216Z,88.4
2018-01-07T05:10:49.702Z,88.2
2018-01-07T05:11:52.481Z,88.2
2018-01-07T05:12:54.973Z,88.1
2018-01-07T05:13:57.460Z,88
2018-01-07T05:14:59.957Z,87.8
2018-01-07T05:16:02.771Z,87.8
2018-01-07T05:17:05.246Z,87.9
2018-01-07T05:18:07.733Z,87.9
2018-01-07T05:19:10.516Z,87.9
2018-01-07T05:20:12.998Z,87.9
2018-01-07T05:21:15.496Z,87.9
2018-01-07T05:22:17.984Z,87.9
2018-01-07T05:23:20.458Z,87.8
2018-01-07T05:24:22.972Z,87.9
2018-01-07T05:25:25.752Z,88.1
2018-01-07T05:26:28.233Z,88.3
2018-01-07T05:27:30.722Z,88.2
2018-01-07T05:28:33.210Z,88.1
2018-01-07T05:29:35.697Z,88.1
2018-01-07T05:30:38.183Z,88.2
2018-01-07T05:31:41.260Z,88.2
2018-01-07T05:32:43.747Z,88.3
2018-01-07T05:33:46.552Z,88.4
2018-01-07T05:34:49.043Z,88.3
2018-01-07T05:35:51.531Z,88.2
2018-01-07T05:36:54.011Z,88.3
2018-01-07T05:37:56.509Z,88.2
2018-01-07T05:38:58.989Z,88.1
2018-01-07T05:40:01.761Z,88.1
2018-01-07T05:41:04.262Z,88.1
2018-01-07T05:42:06.756Z,88.1
2018-01-07T05:43:09.243Z,88
2018-01-07T05:44:11.735Z,88
2018-01-07T05:45:14.538Z,88
2018-01-07T05:46:17.030Z,88.1
2018-01-07T05:47:19.524Z,88.1
2018-01-07T05:48:22.003Z,88.2
2018-01-07T05:49:24.492Z,88.2
2018-01-07T05:50:26.984Z,88.1
2018-01-07T05:51:29.469Z,88
2018-01-07T05:52:31.947Z,88.1
2018-01-07T05:53:34.439Z,88.1
2018-01-07T05:54:36.931Z,88.1
2018-01-07T05:55:39.428Z,88.1
2018-01-07T05:56:41.914Z,88.2
2018-01-07T05:57:44.399Z,88.2
2018-01-07T05:58:46.880Z,88.2
2018-01-07T05:59:49.377Z,88.2
2018-01-07T06:00:51.871Z,88
2018-01-07T06:01:54.348Z,87.9
2018-01-07T06:02:56.839Z,87.9
2018-01-07T06:03:59.612Z,88.1
2018-01-07T06:05:02.113Z,88
2018-01-07T06:06:04.620Z,88
2018-01-07T06:07:07.097Z,87.9
2018-01-07T06:08:09.596Z,87.9
2018-01-07T06:09:12.097Z,88
2018-01-07T06:10:14.579Z,88
2018-01-07T06:11:17.372Z,88.2
2018-01-07T06:12:20.146Z,88.2
2018-01-07T06:13:22.628Z,88.2
2018-01-07T06:14:25.137Z,88.3
2018-01-07T06:15:27.909Z,88.3
2018-01-07T06:16:30.691Z,88.3
2018-01-07T06:17:33.469Z,88.3
2018-01-07T06:18:35.950Z,88.3
2018-01-07T06:19:38.456Z,88.1
2018-01-07T06:20:41.236Z,88.2
2018-01-07T06:21:44.281Z,88.2
2018-01-07T06:22:46.776Z,88.2
2018-01-07T06:23:49.258Z,88.2
2018-01-07T06:24:51.747Z,88.2
2018-01-07T06:25:54.240Z,88.3
2018-01-07T06:26:56.728Z,88.3
2018-01-07T06:27:59.215Z,88.2
2018-01-07T06:29:01.717Z,88.2
2018-01-07T06:30:04.490Z,88.1
2018-01-07T06:31:06.981Z,88.1
2018-01-07T06:32:09.459Z,88.1
2018-01-07T06:33:11.954Z,88.2
2018-01-07T06:34:14.440Z,88.2
2018-01-07T06:35:16.932Z,87.9
2018-01-07T06:36:19.713Z,88
2018-01-07T06:37:22.200Z,88.1
2018-01-07T06:38:24.700Z,88.1
2018-01-07T06:39:27.198Z,88.2
2018-01-07T06:40:29.718Z,88.2
2018-01-07T06:41:32.221Z,88.2
2018-01-07T06:42:34.709Z,88.3
2018-01-07T06:43:37.201Z,88.5
2018-01-07T06:44:39.980Z,88.3
2018-01-07T06:45:42.466Z,88.4
2018-01-07T06:46:44.950Z,88.3
2018-01-07T06:47:47.454Z,88.3
2018-01-07T06:48:49.939Z,88.3
2018-01-07T06:49:52.436Z,88.2
2018-01-07T06:50:54.925Z,88.1
2018-01-07T06:51:57.456Z,88
2018-01-07T06:52:59.897Z,88.2
2018-01-07T06:54:02.401Z,88.1
2018-01-07T06:55:05.450Z,88.2
2018-01-07T06:56:07.938Z,88.3
2018-01-07T06:57:10.433Z,88.5
2018-01-07T06:58:12.917Z,88.5
2018-01-07T06:59:15.405Z,88.3
2018-01-07T07:00:17.896Z,88.3
2018-01-07T07:01:20.384Z,88.3
2018-01-07T07:02:22.860Z,88.4
2018-01-07T07:03:25.638Z,88.4
2018-01-07T07:04:28.130Z,88.5
2018-01-07T07:05:30.615Z,88.5
2018-01-07T07:06:33.100Z,88.5
2018-01-07T07:07:35.884Z,88.5
2018-01-07T07:08:38.382Z,88.5
2018-01-07T07:09:41.164Z,88.5
2018-01-07T07:10:43.656Z,88.4
2018-01-07T07:11:46.428Z,88.3
2018-01-07T07:12:49.218Z,88.4
2018-01-07T07:13:51.705Z,88.4
2018-01-07T07:14:54.199Z,88.6
2018-01-07T07:15:56.975Z,88.6
2018-01-07T07:16:59.747Z,88.6
2018-01-07T07:18:02.231Z,88.5
2018-01-07T07:19:04.738Z,88.5
2018-01-07T07:20:07.224Z,88.5
2018-01-07T07:21:09.708Z,88.5
2018-01-07T07:22:12.198Z,88.6
2018-01-07T07:23:14.681Z,88.4
2018-01-07T07:24:17.173Z,88.3
2018-01-07T07:25:19.667Z,88.4
2018-01-07T07:26:22.139Z,88.5
2018-01-07T07:27:24.926Z,88.4
2018-01-07T07:28:27.410Z,88.5
2018-01-07T07:29:29.913Z,88.5
2018-01-07T07:30:32.681Z,88.5
2018-01-07T07:31:35.171Z,88.6
2018-01-07T07:32:37.664Z,88.7
2018-01-07T07:33:40.150Z,88.8
2018-01-07T07:34:42.641Z,88.8
2018-01-07T07:35:45.137Z,88.8
2018-01-07T07:36:47.612Z,88.9
2018-01-07T07:37:50.123Z,88.8
2018-01-07T07:38:52.606Z,88.7
2018-01-07T07:39:55.092Z,88.6
2018-01-07T07:40:57.580Z,88.7
2018-01-07T07:42:00.069Z,88.7
2018-01-07T07:43:02.555Z,88.7
2018-01-07T07:44:05.348Z,88.6
2018-01-07T07:45:08.125Z,88.8
2018-01-07T07:46:11.067Z,88.6
2018-01-07T07:47:13.555Z,88.6
2018-01-07T07:48:16.044Z,88.6
2018-01-07T07:49:18.638Z,88.6
2018-01-07T07:50:21.445Z,88.6
2018-01-07T07:51:23.923Z,88.6
2018-01-07T07:52:26.425Z,88.7
2018-01-07T07:53:28.918Z,88.8
2018-01-07T07:54:31.405Z,88.8
2018-01-07T07:55:34.501Z,88.9
2018-01-07T07:56:36.998Z,88.9
2018-01-07T07:57:39.472Z,88.8
2018-01-07T07:58:42.260Z,88.9
2018-01-07T07:59:44.747Z,88.9
2018-01-07T08:00:47.241Z,88.8
2018-01-07T08:01:49.753Z,88.7
2018-01-07T08:02:52.536Z,88.7
2018-01-07T08:03:55.011Z,88.8
2018-01-07T08:04:57.504Z,88.7
2018-01-07T08:05:59.989Z,88.7
2018-01-07T08:07:02.482Z,88.8
2018-01-07T08:08:04.963Z,88.8
2018-01-07T08:09:07.445Z,88.8
2018-01-07T08:10:09.942Z,88.8
2018-01-07T08:11:12.441Z,88.8
2018-01-07T08:12:14.932Z,88.8
2018-01-07T08:13:17.422Z,88.8
2018-01-07T08:14:19.908Z,88.8
2018-01-07T08:15:22.396Z,88.8
2018-01-07T08:16:24.901Z,88.8
2018-01-07T08:17:27.682Z,88.8
2018-01-07T08:18:30.161Z,88.8
2018-01-07T08:19:32.659Z,88.8
2018-01-07T08:20:35.155Z,88.8
2018-01-07T08:21:37.934Z,88.8
2018-01-07T08:22:40.709Z,88.8
2018-01-07T08:23:43.188Z,88.6
2018-01-07T08:24:45.672Z,88.4
2018-01-07T08:25:48.307Z,88.6
2018-01-07T08:26:51.337Z,88.6
2018-01-07T08:27:53.822Z,88.4
2018-01-07T08:28:56.303Z,88.5
2018-01-07T08:29:59.093Z,88.6
2018-01-07T08:31:01.606Z,88.6
2018-01-07T08:32:04.386Z,88.6
2018-01-07T08:33:07.176Z,88.7
2018-01-07T08:34:09.673Z,88.9
2018-01-07T08:35:12.146Z,88.9
2018-01-07T08:36:14.654Z,88.9
2018-01-07T08:37:17.133Z,88.9
2018-01-07T08:38:19.942Z,88.9
2018-01-07T08:39:22.434Z,89
2018-01-07T08:40:24.916Z,88.9
2018-01-07T08:41:28.013Z,88.9
2018-01-07T08:42:30.518Z,88.8
2018-01-07T08:43:32.996Z,88.8
2018-01-07T08:44:35.481Z,88.9
2018-01-07T08:45:38.264Z,88.9
2018-01-07T08:46:40.755Z,88.8
2018-01-07T08:47:43.252Z,88.8
2018-01-07T08:48:45.749Z,88.8
2018-01-07T08:49:48.231Z,88.7
2018-01-07T08:50:50.739Z,88.7
2018-01-07T08:51:53.222Z,88.8
2018-01-07T08:52:55.719Z,88.9
2018-01-07T08:53:58.210Z,88.9
2018-01-07T08:55:00.703Z,89.1
2018-01-07T08:56:03.196Z,89.3
2018-01-07T08:57:05.993Z,89.3
2018-01-07T08:58:08.486Z,89.4
2018-01-07T08:59:10.973Z,89.5
2018-01-07T09:00:13.773Z,89.7
2018-01-07T09:01:16.284Z,89.7
2018-01-07T09:02:19.074Z,89.9
2018-01-07T09:03:21.574Z,89.8
2018-01-07T09:04:24.063Z,89.9
2018-01-07T09:05:26.564Z,90
2018-01-07T09:06:29.404Z,89.9
2018-01-07T09:07:31.902Z,90
2018-01-07T09:08:34.383Z,89.8
2018-01-07T09:09:36.899Z,89.8
2018-01-07T09:10:39.382Z,89.9
2018-01-07T09:11:41.869Z,90
2018-01-07T09:12:44.353Z,90.1
2018-01-07T09:13:46.837Z,90.2
2018-01-07T09:14:49.327Z,90.2
2018-01-07T09:15:51.834Z,90.2
2018-01-07T09:16:54.359Z,90.3
2018-01-07T09:17:56.853Z,90.3
2018-01-07T09:18:59.339Z,90.4
2018-01-07T09:20:01.891Z,90.5
2018-01-07T09:21:04.527Z,90.5
2018-01-07T09:22:07.413Z,90.6
2018-01-07T09:23:10.544Z,90.6
2018-01-07T09:24:13.050Z,90.7
2018-01-07T09:25:15.546Z,90.8
2018-01-07T09:26:18.040Z,90.8
2018-01-07T09:27:20.534Z,90.8
2018-01-07T09:28:23.022Z,90.9
2018-01-07T09:29:25.518Z,91
2018-01-07T09:30:28.016Z,91.1
2018-01-07T09:31:30.499Z,91.3
2018-01-07T09:32:33.001Z,91.4
2018-01-07T09:33:35.490Z,91.6
2018-01-07T09:34:37.980Z,91.7
2018-01-07T09:35:40.772Z,91.7
2018-01-07T09:36:43.546Z,91.8
2018-01-07T09:37:46.346Z,92
2018-01-07T09:38:48.838Z,92
2018-01-07T09:39:51.332Z,91.8
2018-01-07T09:40:53.826Z,91.8
2018-01-07T09:41:56.313Z,91.7
2018-01-07T09:42:58.808Z,91.8
2018-01-07T09:44:01.312Z,91.8
2018-01-07T09:45:03.801Z,91.7
2018-01-07T09:46:06.293Z,91.8
2018-01-07T09:47:08.791Z,91.7
2018-01-07T09:48:11.274Z,91.6
2018-01-07T09:49:13.774Z,91.5
2018-01-07T09:50:16.278Z,91.5
2018-01-07T09:51:18.762Z,91.5
2018-01-07T09:52:21.260Z,91.6
2018-01-07T09:53:23.746Z,91.5
2018-01-07T09:54:26.245Z,91.6
2018-01-07T09:55:28.754Z,91.5
2018-01-07T09:56:31.245Z,91.4
2018-01-07T09:57:34.057Z,91.3
2018-01-07T09:58:36.535Z,91.1
2018-01-07T09:59:39.031Z,91
2018-01-07T10:00:41.814Z,91
2018-01-07T10:01:44.312Z,91.1
2018-01-07T10:02:46.823Z,91.1
2018-01-07T10:03:49.318Z,91.1
2018-01-07T10:04:51.798Z,91
2018-01-07T10:05:54.594Z,91
2018-01-07T10:06:57.673Z,91
2018-01-07T10:08:00.163Z,91.1
2018-01-07T10:09:02.656Z,91.1
2018-01-07T10:10:05.445Z,91.2
2018-01-07T10:11:08.228Z,91.3
2018-01-07T10:12:10.737Z,91.5
2018-01-07T10:13:13.516Z,91.6
2018-01-07T10:14:16.295Z,91.8
2018-01-07T10:15:18.802Z,91.9
2018-01-07T10:16:21.304Z,92
2018-01-07T10:17:23.793Z,92.1
2018-01-07T10:18:26.683Z,92
2018-01-07T10:19:29.188Z,92.1
2018-01-07T10:20:31.680Z,92
2018-01-07T10:21:34.177Z,91.9
2018-01-07T10:22:36.949Z,92.1
2018-01-07T10:23:39.448Z,92.1
2018-01-07T10:24:41.948Z,92
2018-01-07T10:25:44.452Z,92.1
2018-01-07T10:26:46.957Z,92
2018-01-07T10:27:49.467Z,92.1
2018-01-07T10:28:51.966Z,92.1
2018-01-07T10:29:54.448Z,92.2
2018-01-07T10:30:56.939Z,92.3
2018-01-07T10:31:59.452Z,92.3
2018-01-07T10:33:01.948Z,92.5
2018-01-07T10:34:04.796Z,92.6
2018-01-07T10:35:08.940Z,92.7
2018-01-07T10:36:11.813Z,92.4
2018-01-07T10:37:14.320Z,92.4
2018-01-07T10:38:17.119Z,92.5
2018-01-07T10:39:19.886Z,92.5
2018-01-07T10:40:22.388Z,92.5
2018-01-07T10:41:25.166Z,92.8
2018-01-07T10:42:27.656Z,92.9
2018-01-07T10:43:30.157Z,93.2
2018-01-07T10:44:32.647Z,93.2
2018-01-07T10:45:35.144Z,93.5
2018-01-07T10:46:37.640Z,93.9
2018-01-07T10:47:40.141Z,94.6
2018-01-07T10:48:43.518Z,95.2
2018-01-07T10:49:46.023Z,95.9
2018-01-07T10:50:48.811Z,95.7
2018-01-07T10:51:51.601Z,95.5
2018-01-07T10:52:54.093Z,95.1
2018-01-07T10:53:56.882Z,94.8
2018-01-07T10:54:59.371Z,95
2018-01-07T10:56:01.871Z,95.2
2018-01-07T10:57:04.370Z,95.3
2018-01-07T10:58:06.866Z,95.4
2018-01-07T10:59:09.361Z,95.2
2018-01-07T11:00:12.149Z,95.1
2018-01-07T11:01:14.642Z,95.2
2018-01-07T11:02:17.136Z,95.1
2018-01-07T11:03:19.941Z,95
2018-01-07T11:04:22.427Z,95.2
2018-01-07T11:05:24.923Z,95.4
2018-01-07T11:06:27.422Z,95.5
2018-01-07T11:07:30.210Z,95
2018-01-07T11:08:32.709Z,94.8
2018-01-07T11:09:35.211Z,94.8
2018-01-07T11:10:37.703Z,95
2018-01-07T11:11:40.203Z,95.4
2018-01-07T11:12:42.706Z,95.8
2018-01-07T11:13:45.200Z,96
2018-01-07T11:14:47.711Z,96.1
2018-01-07T11:15:50.210Z,95.8
2018-01-07T11:16:52.700Z,95.4
2018-01-07T11:17:55.226Z,95.4
2018-01-07T11:18:57.995Z,95.6
2018-01-07T11:20:00.796Z,95.8
2018-01-07T11:21:03.300Z,95.6
2018-01-07T11:22:05.782Z,95.1
2018-01-07T11:23:08.281Z,94.8
2018-01-07T11:24:10.793Z,94
2018-01-07T11:25:13.288Z,94
2018-01-07T11:26:15.784Z,94.2
2018-01-07T11:27:18.295Z,94.5
2018-01-07T11:28:21.102Z,95
2018-01-07T11:29:23.599Z,95.3
2018-01-07T11:30:26.381Z,96
2018-01-07T11:31:28.886Z,96.8
2018-01-07T11:32:31.380Z,97.6
2018-01-07T11:33:33.886Z,97.9
2018-01-07T11:34:36.380Z,98.3
2018-01-07T11:35:38.879Z,99.1
2018-01-07T11:36:41.378Z,99.4
2018-01-07T11:37:43.889Z,99.7
2018-01-07T11:38:46.376Z,99.9
2018-01-07T11:39:48.882Z,99.8
2018-01-07T11:40:51.398Z,99.9
2018-01-07T11:41:54.194Z,99.9
2018-01-07T11:42:56.698Z,99.8
2018-01-07T11:43:59.195Z,99.7
2018-01-07T11:45:01.699Z,99.5
2018-01-07T11:46:04.208Z,99.6
2018-01-07T11:47:06.710Z,99.5
2018-01-07T11:48:09.196Z,99.2
2018-01-07T11:49:11.703Z,99.6
2018-01-07T11:50:14.200Z,99.6
2018-01-07T11:51:17.026Z,99.4
2018-01-07T11:52:19.818Z,99.5
2018-01-07T11:53:22.317Z,99.4
2018-01-07T11:54:24.814Z,99.3
2018-01-07T11:55:27.336Z,99.3
2018-01-07T11:56:29.825Z,99
2018-01-07T11:57:32.334Z,98.5
2018-01-07T11:58:34.835Z,98.1
2018-01-07T11:59:37.627Z,98
2018-01-07T12:00:40.143Z,98.1
2018-01-07T12:01:42.636Z,98.1
2018-01-07T12:02:45.144Z,98.2
2018-01-07T12:03:47.657Z,98.1
2018-01-07T12:04:50.154Z,97.7
2018-01-07T12:05:52.667Z,96.4
2018-01-07T12:06:55.762Z,94.5
2018-01-07T12:07:58.563Z,94.3
2018-01-07T12:09:01.368Z,95.3
2018-01-07T12:10:04.166Z,95.7
2018-01-07T12:11:06.959Z,95.7
2018-01-07T12:12:09.796Z,95.6
2018-01-07T12:13:12.303Z,95.9
2018-01-07T12:14:14.787Z,96.1
2018-01-07T12:15:17.292Z,96.2
2018-01-07T12:16:19.793Z,96
2018-01-07T12:17:22.583Z,95.1
2018-01-07T12:18:25.089Z,93.9
2018-01-07T12:19:27.586Z,94
2018-01-07T12:20:30.386Z,94.2
2018-01-07T12:21:33.485Z,93.6
2018-01-07T12:22:35.989Z,93.6
2018-01-07T12:23:38.487Z,93.3
2018-01-07T12:24:40.999Z,92.9
2018-01-07T12:25:43.512Z,92.7
2018-01-07T12:26:46.002Z,93.1
2018-01-07T12:27:48.506Z,93.5
2018-01-07T12:28:51.319Z,93.6
2018-01-07T12:29:54.096Z,92.7
2018-01-07T12:30:56.595Z,92.9
2018-01-07T12:31:59.392Z,93.1
2018-01-07T12:33:02.228Z,92.8
2018-01-07T12:34:04.962Z,93
2018-01-07T12:35:07.471Z,93.1
2018-01-07T12:36:09.957Z,92.9
2018-01-07T12:37:12.768Z,92.4
2018-01-07T12:38:15.278Z,92.1
2018-01-07T12:39:17.774Z,92.5
2018-01-07T12:40:20.924Z,93.1
2018-01-07T12:41:24.680Z,93.3
2018-01-07T12:42:27.660Z,92.6
2018-01-07T12:43:30.759Z,92.5
2018-01-07T12:44:33.566Z,92.6
2018-01-07T12:45:37.393Z,92.6
2018-01-07T12:46:41.220Z,92.7
2018-01-07T12:47:44.449Z,92.5
2018-01-07T12:48:46.951Z,92.1
2018-01-07T12:49:49.464Z,91
2018-01-07T12:50:51.964Z,90.8
2018-01-07T12:51:54.762Z,90.7
2018-01-07T12:52:57.564Z,90.2
2018-01-07T12:54:00.651Z,87.7
2018-01-07T12:55:03.147Z,87.9
2018-01-07T12:56:05.946Z,86.4
2018-01-07T12:57:08.461Z,87.2
2018-01-07T12:58:11.033Z,87.6
2018-01-07T12:59:13.825Z,87.3
2018-01-07T13:00:16.345Z,87.6
2018-01-07T13:01:18.854Z,87.2
2018-01-07T13:02:21.744Z,87.6
2018-01-07T13:03:29.148Z,87.1
2018-01-07T13:04:34.567Z,85.1
2018-01-07T13:05:41.436Z,84.4
2018-01-07T13:06:49.298Z,84.1
2018-01-07T13:07:54.664Z,84.9
2018-01-07T13:08:57.306Z,85.4
2018-01-07T13:10:00.206Z,86
2018-01-07T13:11:03.715Z,87.1
2018-01-07T13:12:07.218Z,87.9
2018-01-07T13:13:09.852Z,88.4
2018-01-07T13:14:13.294Z,88.4
2018-01-07T13:15:18.511Z,88.4
2018-01-07T13:16:21.325Z,88.9
2018-01-07T13:17:26.099Z,89.5
2018-01-07T13:18:30.829Z,89
2018-01-07T13:19:42.091Z,89.6
2018-01-07T13:20:54.295Z,90.2
2018-01-07T13:22:00.075Z,90.4
2018-01-07T13:23:07.072Z,90.2
2018-01-07T13:24:14.274Z,89.1
2018-01-07T13:25:26.810Z,88.8
2018-01-07T13:26:37.467Z,89.2
2018-01-07T13:27:46.643Z,89
2018-01-07T13:28:51.598Z,89
2018-01-07T13:29:59.031Z,89
2018-01-07T13:31:04.196Z,88.8
2018-01-07T13:32:11.780Z,88.2
2018-01-07T13:33:20.611Z,88
2018-01-07T13:34:26.414Z,87.7
2018-01-07T13:35:29.129Z,87.7
2018-01-07T13:36:34.475Z,87.2
2018-01-07T13:37:38.132Z,87.4
2018-01-07T13:38:42.304Z,87.6
2018-01-07T13:39:49.337Z,87.4
2018-01-07T13:40:59.091Z,88.2
2018-01-07T13:42:07.411Z,88.6
2018-01-07T13:43:10.824Z,89.4
2018-01-07T13:44:20.775Z,89.7
2018-01-07T13:45:30.037Z,89.8
2018-01-07T13:46:33.072Z,89.6
2018-01-07T13:47:37.187Z,89.3
2018-01-07T13:48:46.937Z,89.4
2018-01-07T13:49:52.396Z,89.8
2018-01-07T13:50:58.241Z,90
2018-01-07T13:52:01.746Z,90
2018-01-07T13:53:04.944Z,90
2018-01-07T13:54:08.472Z,90
2018-01-07T13:55:16.731Z,90
2018-01-07T13:56:21.898Z,89.7
2018-01-07T13:57:27.971Z,89.2
2018-01-07T13:58:33.521Z,89.4
2018-01-07T13:59:41.246Z,89.2
2018-01-07T14:00:53.102Z,89
2018-01-07T14:01:57.506Z,88.9
2018-01-07T14:03:00.958Z,89.2
2018-01-07T14:04:03.734Z,89.6
2018-01-07T14:05:06.234Z,89.8